createdAt,value
2018-07-31T00:00:25.599Z,37.90
2018-07-31T00:03:05.625Z,38.00
2018-07-31T00:05:42.095Z,38.10
2018-07-31T00:08:23.178Z,38.30
2018-07-31T00:11:00.048Z,38.70
2018-07-31T00:13:32.464Z,39.00
2018-07-31T00:16:04.189Z,39.50
2018-07-31T00:18:37.829Z,39.90
2018-07-31T00:23:58.098Z,39.80
2018-07-31T00:26:36.947Z,40.10
2018-07-31T00:29:11.793Z,39.90
2018-07-31T00:31:51.332Z,40.10
2018-07-31T00:37:12.049Z,40.70
2018-07-31T00:39:51.490Z,40.70
2018-07-31T00:42:28.773Z,40.60
2018-07-31T00:45:08.225Z,40.70
2018-07-31T00:47:43.598Z,40.70
2018-07-31T00:50:19.316Z,40.70
2018-07-31T00:52:55.319Z,40.70
2018-07-31T00:55:29.531Z,40.70
2018-07-31T00:58:01.586Z,40.70
2018-07-31T01:00:40.782Z,40.70
2018-07-31T01:03:12.893Z,41.20
2018-07-31T01:05:50.116Z,41.40
2018-07-31T01:11:20.914Z,40.90
2018-07-31T01:13:57.396Z,40.90
2018-07-31T01:16:35.131Z,41.20
2018-07-31T01:19:17.285Z,41.30
2018-07-31T01:22:07.458Z,41.40
2018-07-31T01:30:24.478Z,41.30
2018-07-31T01:33:03.030Z,42.10
2018-07-31T01:35:39.244Z,41.60
2018-07-31T01:38:21.864Z,41.80
2018-07-31T01:43:44.999Z,41.70
2018-07-31T01:46:37.125Z,42.00
2018-07-31T01:49:20.614Z,42.00
2018-07-31T01:51:52.772Z,42.40
2018-07-31T01:54:31.074Z,42.60
2018-07-31T01:57:11.120Z,42.50
2018-07-31T01:59:49.755Z,42.60
2018-07-31T02:02:26.881Z,42.90
2018-07-31T02:04:57.636Z,43.00
2018-07-31T02:07:31.626Z,43.40
2018-07-31T02:10:03.612Z,43.20
2018-07-31T02:12:32.934Z,43.20
2018-07-31T02:15:03.610Z,43.40
2018-07-31T02:17:33.457Z,43.60
2018-07-31T02:20:03.999Z,43.80
2018-07-31T02:22:33.167Z,44.30
2018-07-31T02:25:04.790Z,44.60
2018-07-31T02:27:34.411Z,44.80
2018-07-31T02:30:09.546Z,44.90
2018-07-31T02:32:40.902Z,45.20
2018-07-31T02:35:10.566Z,44.90
2018-07-31T02:37:40.548Z,44.70
2018-07-31T02:40:09.815Z,44.60
2018-07-31T02:42:40.561Z,44.60
2018-07-31T02:45:14.504Z,44.60
2018-07-31T02:47:48.534Z,44.80
2018-07-31T02:50:18.439Z,44.90
2018-07-31T02:52:48.566Z,44.70
2018-07-31T02:55:17.864Z,44.90
2018-07-31T02:57:53.166Z,45.00
2018-07-31T03:00:22.246Z,44.60
2018-07-31T03:02:53.888Z,44.20
2018-07-31T03:07:52.295Z,43.80
2018-07-31T03:10:21.851Z,43.80
2018-07-31T03:12:51.184Z,43.60
2018-07-31T03:15:20.573Z,43.00
2018-07-31T03:17:50.565Z,42.90
2018-07-31T03:20:21.818Z,43.00
2018-07-31T03:22:55.668Z,43.20
2018-07-31T03:25:26.626Z,43.00
2018-07-31T03:27:57.003Z,43.70
2018-07-31T03:30:26.744Z,43.80
2018-07-31T03:32:56.942Z,44.20
2018-07-31T03:35:26.974Z,44.50
2018-07-31T03:37:58.391Z,44.80
2018-07-31T03:40:34.800Z,44.70
2018-07-31T03:43:06.472Z,45.40
2018-07-31T03:45:47.006Z,44.90
2018-07-31T03:48:36.368Z,45.30
2018-07-31T03:51:09.255Z,45.60
2018-07-31T03:53:44.614Z,46.20
2018-07-31T03:56:22.664Z,46.10
2018-07-31T03:58:56.407Z,46.20
2018-07-31T04:01:42.910Z,46.20
2018-07-31T04:04:19.191Z,45.80
2018-07-31T04:07:02.530Z,45.80
2018-07-31T04:09:34.896Z,45.50
2018-07-31T04:12:05.894Z,45.70
2018-07-31T04:14:40.240Z,45.60
2018-07-31T04:17:11.933Z,45.40
2018-07-31T04:19:47.040Z,45.60
2018-07-31T04:22:18.268Z,45.60
2018-07-31T04:24:52.601Z,45.80
2018-07-31T04:27:25.504Z,45.60
2018-07-31T04:29:57.819Z,45.60
2018-07-31T04:45:51.731Z,43.00
2018-07-31T04:54:28.130Z,43.10
2018-07-31T05:32:05.851Z,40.90
2018-07-31T05:35:05.912Z,39.50
2018-07-31T05:44:40.302Z,34.50
2018-07-31T05:48:29.858Z,32.60
2018-07-31T05:51:13.902Z,29.80
2018-07-31T05:53:51.495Z,29.00
2018-07-31T05:56:33.523Z,28.20
2018-07-31T05:59:15.090Z,27.70
2018-07-31T06:04:46.865Z,27.10
2018-07-31T06:07:35.926Z,27.20
2018-07-31T06:13:35.986Z,26.40
2018-07-31T06:19:39.181Z,24.60
2018-07-31T06:26:51.361Z,24.00
2018-07-31T06:29:47.913Z,23.80
2018-07-31T07:16:48.942Z,20.00
2018-07-31T07:19:49.871Z,19.40
2018-07-31T07:28:03.796Z,19.80
2018-07-31T07:35:29.994Z,20.50
2018-07-31T07:38:14.653Z,20.50
2018-07-31T07:45:54.317Z,17.90
2018-07-31T07:48:48.316Z,17.30
2018-07-31T07:51:48.906Z,18.20
2018-07-31T07:55:12.460Z,18.10
2018-07-31T07:58:55.215Z,16.70
2018-07-31T08:01:44.731Z,16.30
2018-07-31T08:07:34.754Z,16.60
2018-07-31T08:13:19.298Z,16.60
2018-07-31T08:29:02.319Z,15.70
2018-07-31T08:31:45.632Z,15.70
2018-07-31T08:40:04.045Z,15.30
2018-07-31T08:42:54.557Z,15.00
2018-07-31T08:45:33.060Z,14.50
2018-07-31T08:48:07.554Z,14.40
2018-07-31T08:50:51.958Z,15.00
2018-07-31T08:53:28.897Z,15.10
2018-07-31T08:56:09.766Z,15.00
2018-07-31T08:58:58.410Z,14.80
2018-07-31T09:01:47.194Z,15.00
2018-07-31T09:04:37.180Z,14.10
2018-07-31T09:07:55.397Z,14.10
2018-07-31T09:16:19.874Z,14.50
2018-07-31T09:18:57.833Z,14.60
2018-07-31T09:21:37.653Z,15.50
2018-07-31T09:24:21.793Z,15.40
2018-07-31T09:27:07.514Z,15.30
2018-07-31T09:29:48.077Z,14.90
2018-07-31T09:33:28.201Z,15.70
2018-07-31T09:36:09.173Z,15.60
2018-07-31T09:38:44.550Z,15.70
2018-07-31T09:45:38.600Z,15.90
2018-07-31T09:48:11.792Z,15.70
2018-07-31T09:56:25.592Z,18.20
2018-07-31T09:59:06.858Z,18.50
2018-07-31T10:01:48.839Z,18.20
2018-07-31T10:04:28.991Z,18.70
2018-07-31T10:07:06.997Z,18.70
2018-07-31T10:12:37.194Z,19.50
2018-07-31T10:15:26.119Z,19.20
2018-07-31T10:18:10.782Z,18.40
2018-07-31T10:20:46.414Z,18.90
2018-07-31T10:26:02.838Z,19.00
2018-07-31T10:31:09.149Z,18.50
2018-07-31T10:33:44.643Z,18.80
2018-07-31T10:36:22.459Z,19.40
2018-07-31T10:38:59.474Z,19.30
2018-07-31T10:44:29.579Z,18.60
2018-07-31T10:49:58.716Z,19.40
2018-07-31T10:52:45.196Z,18.50
2018-07-31T10:58:14.079Z,18.20
2018-07-31T11:00:57.868Z,18.30
2018-07-31T11:03:38.893Z,18.00
2018-07-31T11:06:14.258Z,17.50
2018-07-31T11:08:56.581Z,17.40
2018-07-31T11:11:31.663Z,16.50
2018-07-31T11:14:04.896Z,17.00
2018-07-31T11:16:44.633Z,16.80
2018-07-31T11:19:58.475Z,16.10
2018-07-31T11:22:42.954Z,15.70
2018-07-31T11:25:26.880Z,15.80
2018-07-31T11:30:54.863Z,15.20
2018-07-31T11:33:30.003Z,15.60
2018-07-31T11:44:45.243Z,15.40
2018-07-31T11:47:36.875Z,14.90
2018-07-31T11:50:21.419Z,14.60
2018-07-31T11:53:06.297Z,14.50
2018-07-31T11:55:49.112Z,14.60
2018-07-31T11:58:29.669Z,14.70
2018-07-31T12:01:13.415Z,14.80
2018-07-31T12:03:48.768Z,14.80
2018-07-31T12:06:31.117Z,14.70
2018-07-31T12:09:07.528Z,14.70
2018-07-31T12:11:51.173Z,14.30
2018-07-31T12:14:35.995Z,14.30
2018-07-31T12:20:04.111Z,13.80
2018-07-31T12:22:54.415Z,13.90
2018-07-31T12:25:32.636Z,14.10
2018-07-31T12:28:38.063Z,13.60
2018-07-31T12:31:13.937Z,13.60
2018-07-31T12:33:49.581Z,13.70
2018-07-31T12:36:27.075Z,14.00
2018-07-31T12:39:06.614Z,14.00
2018-07-31T12:44:26.721Z,13.80
2018-07-31T12:47:10.457Z,13.80
2018-07-31T12:49:48.228Z,13.90
2018-07-31T12:55:08.036Z,13.90
2018-07-31T12:57:46.840Z,13.80
2018-07-31T13:00:16.291Z,14.30
2018-07-31T13:02:45.864Z,13.80
2018-07-31T13:05:15.261Z,13.50
2018-07-31T13:07:44.686Z,13.40
2018-07-31T13:10:15.050Z,13.80
2018-07-31T13:12:44.269Z,13.90
2018-07-31T13:15:13.162Z,13.70
2018-07-31T13:17:43.093Z,13.40
2018-07-31T13:20:12.389Z,13.40
2018-07-31T13:22:42.709Z,13.00
2018-07-31T13:25:13.041Z,13.90
2018-07-31T13:27:46.069Z,13.80
2018-07-31T13:30:22.191Z,13.90
2018-07-31T13:33:03.992Z,14.20
2018-07-31T13:35:34.410Z,13.50
2018-07-31T13:38:13.953Z,13.80
2018-07-31T13:43:54.898Z,14.40
2018-07-31T13:52:06.642Z,14.50
2018-07-31T13:54:56.300Z,14.20
2018-07-31T13:57:53.346Z,14.20
2018-07-31T14:03:29.125Z,13.50
2018-07-31T14:06:12.345Z,14.10
2018-07-31T14:08:52.934Z,13.80
2018-07-31T14:11:36.154Z,13.60
2018-07-31T14:14:22.841Z,14.10
2018-07-31T14:16:58.194Z,13.90
2018-07-31T14:19:32.422Z,13.60
2018-07-31T14:22:08.501Z,13.50
2018-07-31T14:24:58.088Z,13.70
2018-07-31T14:27:51.325Z,13.30
2018-07-31T14:38:13.269Z,13.60
2018-07-31T14:46:22.269Z,13.20
2018-07-31T14:49:00.064Z,13.30
2018-07-31T15:00:50.312Z,13.10
2018-07-31T15:06:42.260Z,14.00
2018-07-31T15:23:09.886Z,13.90
2018-07-31T15:28:57.976Z,14.70
2018-07-31T15:31:35.770Z,14.80
2018-07-31T15:34:17.128Z,14.50
2018-07-31T15:36:57.471Z,14.30
2018-07-31T15:39:57.711Z,14.50
2018-07-31T15:42:30.965Z,14.60
2018-07-31T15:45:10.545Z,14.90
2018-07-31T15:47:51.339Z,15.30
2018-07-31T15:50:29.214Z,15.70
2018-07-31T15:53:10.594Z,15.80
2018-07-31T15:55:51.603Z,15.60
2018-07-31T16:01:27.241Z,15.20
2018-07-31T16:04:07.826Z,15.20
2018-07-31T16:06:52.160Z,15.00
2018-07-31T16:09:29.761Z,15.50
2018-07-31T16:12:17.175Z,15.00
2018-07-31T16:14:59.491Z,15.20
2018-07-31T16:17:41.079Z,15.30
2018-07-31T16:20:17.933Z,15.20
2018-07-31T16:22:55.947Z,15.20
2018-07-31T16:25:35.401Z,15.40
2018-07-31T16:28:12.887Z,15.50
2018-07-31T16:31:14.403Z,15.30
2018-07-31T16:34:05.862Z,15.40
2018-07-31T16:36:44.575Z,15.40
2018-07-31T16:39:34.188Z,15.40
2018-07-31T16:42:20.468Z,15.50
2018-07-31T16:45:08.669Z,16.00
2018-07-31T16:48:02.677Z,16.00
2018-07-31T16:50:38.098Z,16.20
2018-07-31T16:56:28.463Z,16.70
2018-07-31T16:59:14.228Z,16.80
2018-07-31T17:01:54.145Z,17.10
2018-07-31T17:04:25.559Z,17.20
2018-07-31T17:07:06.984Z,17.20
2018-07-31T17:09:36.396Z,17.10
2018-07-31T17:12:05.542Z,17.20
2018-07-31T17:14:34.897Z,17.10
2018-07-31T17:17:05.245Z,17.30
2018-07-31T17:19:34.657Z,17.40
2018-07-31T17:22:04.028Z,17.50
2018-07-31T17:30:10.009Z,17.30
2018-07-31T17:32:57.526Z,17.50
2018-07-31T17:35:29.780Z,17.00
2018-07-31T17:38:03.147Z,17.10
2018-07-31T17:40:33.930Z,17.30
2018-07-31T17:43:04.853Z,17.80
2018-07-31T17:48:04.189Z,18.00
2018-07-31T17:50:34.522Z,18.00
2018-07-31T17:53:12.813Z,18.60
2018-07-31T17:55:43.562Z,18.20
2018-07-31T17:58:14.139Z,17.90
2018-07-31T18:00:44.606Z,18.30
2018-07-31T18:03:15.458Z,18.50
2018-07-31T18:05:50.825Z,18.90
2018-07-31T18:08:22.024Z,19.10
2018-07-31T18:10:52.027Z,19.50
2018-07-31T18:13:22.852Z,19.50
2018-07-31T18:15:52.837Z,19.50
2018-07-31T18:18:22.373Z,20.00
2018-07-31T18:20:51.487Z,20.00
2018-07-31T18:24:50.915Z,20.40
2018-07-31T18:27:42.377Z,20.50
2018-07-31T18:30:13.046Z,21.00
2018-07-31T18:32:43.940Z,21.60
2018-07-31T18:35:12.682Z,21.80
2018-07-31T18:37:42.442Z,22.20
2018-07-31T18:40:11.334Z,22.50
2018-07-31T18:42:40.457Z,22.50
2018-07-31T18:45:09.657Z,23.00
2018-07-31T18:47:53.592Z,22.70
2018-07-31T18:50:26.490Z,23.20
2018-07-31T18:52:56.597Z,23.40
2018-07-31T18:55:29.155Z,23.80
2018-07-31T18:58:02.614Z,23.90
2018-07-31T19:03:01.993Z,24.40
2018-07-31T19:05:32.635Z,24.60
2018-07-31T19:08:02.146Z,24.70
2018-07-31T19:10:35.837Z,25.10
2018-07-31T19:13:05.195Z,25.20
2018-07-31T19:15:35.665Z,25.50
2018-07-31T19:18:05.388Z,25.80
2018-07-31T19:20:35.389Z,25.70
2018-07-31T19:23:04.693Z,26.00
2018-07-31T19:25:33.479Z,26.40
2018-07-31T19:28:02.604Z,26.50
2018-07-31T19:30:33.556Z,26.90
2018-07-31T19:33:02.666Z,27.00
2018-07-31T19:35:33.058Z,27.10
2018-07-31T19:38:02.233Z,27.30
2018-07-31T19:40:32.922Z,27.50
2018-07-31T19:43:02.253Z,27.70
2018-07-31T19:45:32.043Z,28.00
2018-07-31T19:48:00.972Z,28.10
2018-07-31T19:50:30.989Z,28.10
2018-07-31T19:53:00.873Z,28.10
2018-07-31T19:55:32.079Z,28.00
2018-07-31T20:00:33.784Z,28.70
2018-07-31T20:03:02.750Z,28.90
2018-07-31T20:05:37.944Z,29.70
2018-07-31T20:08:09.042Z,29.20
2018-07-31T20:10:38.079Z,29.40
2018-07-31T20:13:08.935Z,29.50
2018-07-31T20:15:39.070Z,29.60
2018-07-31T20:18:08.152Z,29.80
2018-07-31T20:20:40.933Z,29.90
2018-07-31T20:23:11.603Z,30.30
2018-07-31T20:25:40.954Z,30.00
2018-07-31T20:28:12.926Z,30.00
2018-07-31T20:30:52.913Z,30.10
2018-07-31T20:33:32.918Z,30.50
2018-07-31T20:36:19.415Z,30.20
2018-07-31T20:39:06.796Z,30.20
2018-07-31T20:41:50.121Z,30.00
2018-07-31T20:44:38.793Z,30.30
2018-07-31T20:47:26.220Z,30.40
2018-07-31T20:50:03.246Z,30.70
2018-07-31T20:52:48.108Z,31.20
2018-07-31T20:55:29.178Z,31.00
2018-07-31T20:58:07.615Z,31.30
2018-07-31T21:00:43.985Z,31.40
2018-07-31T21:03:26.586Z,31.80
2018-07-31T21:06:18.231Z,31.80
2018-07-31T21:09:15.667Z,31.80
2018-07-31T21:12:13.355Z,31.80
2018-07-31T21:14:49.301Z,31.80
2018-07-31T21:17:22.194Z,31.70
2018-07-31T21:19:55.985Z,31.80
2018-07-31T21:22:31.952Z,31.80
2018-07-31T21:30:22.713Z,31.90
2018-07-31T21:33:20.856Z,32.20
2018-07-31T21:35:58.609Z,32.60
2018-07-31T21:38:37.271Z,32.70
2018-07-31T21:44:02.870Z,32.90
2018-07-31T21:46:45.053Z,33.00
2018-07-31T21:49:25.483Z,33.00
2018-07-31T21:52:02.919Z,33.20
2018-07-31T21:54:37.426Z,33.30
2018-07-31T21:57:10.262Z,33.20
2018-07-31T21:59:45.426Z,33.10
2018-07-31T22:02:18.999Z,33.00
2018-07-31T22:05:09.073Z,32.90
2018-07-31T22:07:41.443Z,32.90
2018-07-31T22:10:20.151Z,32.90
2018-07-31T22:12:59.789Z,33.00
2018-07-31T22:18:25.541Z,33.20
2018-07-31T22:21:01.022Z,33.20
2018-07-31T22:23:33.685Z,33.40
2018-07-31T22:26:12.419Z,33.80
2018-07-31T22:28:49.731Z,34.00
2018-07-31T22:31:24.711Z,34.10
2018-07-31T22:34:03.104Z,34.20
2018-07-31T22:36:38.122Z,35.20
2018-07-31T22:39:19.675Z,34.30
2018-07-31T22:41:54.054Z,34.30
2018-07-31T22:44:37.410Z,34.50
2018-07-31T22:50:13.228Z,34.90
2018-07-31T22:52:49.488Z,34.30
2018-07-31T22:55:30.365Z,34.30
2018-07-31T22:58:10.653Z,34.60
2018-07-31T23:00:48.951Z,34.70
2018-07-31T23:03:25.405Z,34.70
2018-07-31T23:06:03.591Z,34.60
2018-07-31T23:08:40.790Z,34.60
2018-07-31T23:13:51.053Z,34.70
2018-07-31T23:16:27.216Z,34.80
2018-07-31T23:19:01.975Z,35.00
2018-07-31T23:21:33.035Z,35.20
2018-07-31T23:24:02.901Z,35.70
2018-07-31T23:26:49.735Z,35.80
2018-07-31T23:29:43.511Z,36.00
2018-07-31T23:32:14.678Z,36.00
2018-07-31T23:34:46.377Z,35.90
2018-07-31T23:37:18.986Z,36.00
2018-07-31T23:42:34.994Z,36.50
2018-07-31T23:45:05.756Z,36.90
2018-07-31T23:47:37.249Z,37.00
2018-07-31T23:52:49.390Z,37.00
2018-07-31T23:55:29.563Z,37.10
2018-07-31T23:58:12.376Z,37.10
